createdAt,value
2018-08-31T00:00:06.137Z,21.46
2018-08-31T00:00:46.621Z,21.56
2018-08-31T00:01:27.483Z,21.4
2018-08-31T00:02:08.010Z,21.49
2018-08-31T00:02:48.638Z,21.62
2018-08-31T00:03:29.125Z,21.58
2018-08-31T00:04:09.620Z,21.52
2018-08-31T00:04:50.198Z,21.5
2018-08-31T00:05:30.651Z,21.56
2018-08-31T00:06:11.183Z,21.59
2018-08-31T00:06:51.759Z,21.47
2018-08-31T00:07:32.187Z,21.44
2018-08-31T00:08:12.722Z,21.46
2018-08-31T00:08:53.226Z,21.38
2018-08-31T00:09:33.782Z,21.5
2018-08-31T00:10:14.285Z,21.53
2018-08-31T00:10:54.745Z,21.64
2018-08-31T00:11:35.262Z,21.69
2018-08-31T00:12:15.754Z,21.64
2018-08-31T00:12:56.254Z,21.64
2018-08-31T00:13:36.772Z,21.71
2018-08-31T00:14:17.303Z,21.74
2018-08-31T00:14:57.768Z,21.8
2018-08-31T00:15:38.313Z,21.84
2018-08-31T00:16:18.842Z,21.69
2018-08-31T00:16:59.346Z,21.71
2018-08-31T00:17:39.851Z,21.69
2018-08-31T00:18:20.359Z,21.72
2018-08-31T00:19:00.881Z,21.79
2018-08-31T00:19:41.375Z,21.8
2018-08-31T00:20:21.896Z,21.82
2018-08-31T00:21:02.391Z,21.75
2018-08-31T00:21:43.666Z,21.75
2018-08-31T00:22:24.176Z,21.88
2018-08-31T00:23:04.679Z,21.82
2018-08-31T00:23:45.197Z,21.86
2018-08-31T00:24:25.719Z,21.8
2018-08-31T00:25:06.218Z,21.83
2018-08-31T00:25:46.761Z,21.8
2018-08-31T00:26:27.212Z,21.74
2018-08-31T00:27:07.762Z,21.75
2018-08-31T00:27:48.238Z,21.82
2018-08-31T00:28:28.740Z,21.69
2018-08-31T00:29:09.266Z,21.82
2018-08-31T00:29:49.774Z,21.84
2018-08-31T00:30:30.313Z,21.79
2018-08-31T00:31:10.805Z,21.82
2018-08-31T00:31:51.307Z,21.86
2018-08-31T00:32:31.834Z,21.86
2018-08-31T00:33:12.343Z,21.88
2018-08-31T00:33:52.894Z,21.84
2018-08-31T00:34:33.396Z,21.79
2018-08-31T00:35:13.892Z,21.84
2018-08-31T00:35:54.350Z,21.88
2018-08-31T00:36:34.846Z,21.91
2018-08-31T00:37:15.341Z,21.96
2018-08-31T00:37:55.811Z,21.96
2018-08-31T00:38:36.280Z,21.99
2018-08-31T00:39:16.739Z,21.91
2018-08-31T00:39:57.297Z,21.83
2018-08-31T00:40:37.720Z,21.82
2018-08-31T00:41:18.405Z,21.84
2018-08-31T00:41:58.849Z,21.91
2018-08-31T00:42:39.383Z,21.98
2018-08-31T00:43:19.841Z,21.94
2018-08-31T00:44:00.363Z,21.99
2018-08-31T00:44:40.909Z,21.98
2018-08-31T00:45:21.400Z,21.98
2018-08-31T00:46:01.890Z,21.96
2018-08-31T00:46:42.394Z,22.02
2018-08-31T00:47:22.951Z,21.98
2018-08-31T00:48:03.383Z,21.98
2018-08-31T00:48:43.839Z,21.79
2018-08-31T00:49:24.310Z,21.88
2018-08-31T00:50:04.836Z,21.74
2018-08-31T00:50:45.296Z,21.86
2018-08-31T00:51:25.740Z,21.82
2018-08-31T00:52:06.465Z,21.68
2018-08-31T00:52:46.928Z,21.44
2018-08-31T00:53:27.423Z,21.56
2018-08-31T00:54:07.879Z,21.47
2018-08-31T00:54:48.422Z,21.52
2018-08-31T00:55:28.876Z,21.49
2018-08-31T00:56:09.439Z,21.54
2018-08-31T00:56:49.865Z,21.31
2018-08-31T00:57:30.378Z,21.35
2018-08-31T00:58:10.844Z,21.37
2018-08-31T00:58:51.380Z,21.34
2018-08-31T00:59:32.075Z,21.47
2018-08-31T01:00:12.528Z,21.38
2018-08-31T01:00:53.026Z,21.42
2018-08-31T01:01:33.528Z,21.37
2018-08-31T01:02:14.075Z,21.34
2018-08-31T01:02:54.501Z,21.31
2018-08-31T01:03:35.035Z,21.4
2018-08-31T01:04:15.519Z,21.47
2018-08-31T01:04:56.013Z,21.38
2018-08-31T01:05:36.497Z,21.34
2018-08-31T01:06:17.044Z,21.4
2018-08-31T01:06:57.530Z,21.47
2018-08-31T01:07:38.033Z,21.47
2018-08-31T01:08:18.573Z,21.53
2018-08-31T01:08:59.029Z,21.58
2018-08-31T01:09:39.558Z,21.59
2018-08-31T01:10:20.032Z,21.52
2018-08-31T01:11:00.555Z,21.59
2018-08-31T01:11:41.034Z,21.65
2018-08-31T01:12:21.571Z,21.68
2018-08-31T01:13:02.046Z,21.65
2018-08-31T01:13:42.509Z,21.65
2018-08-31T01:14:23.149Z,21.61
2018-08-31T01:15:03.670Z,21.38
2018-08-31T01:15:44.110Z,21.44
2018-08-31T01:16:24.581Z,21.46
2018-08-31T01:17:05.094Z,21.47
2018-08-31T01:17:45.571Z,21.49
2018-08-31T01:18:26.094Z,21.49
2018-08-31T01:19:06.571Z,21.61
2018-08-31T01:19:47.083Z,21.65
2018-08-31T01:20:27.562Z,21.62
2018-08-31T01:21:08.025Z,21.67
2018-08-31T01:21:48.563Z,21.67
2018-08-31T01:22:29.274Z,21.69
2018-08-31T01:23:09.786Z,21.56
2018-08-31T01:23:50.293Z,21.58
2018-08-31T01:24:30.853Z,21.65
2018-08-31T01:25:11.332Z,21.69
2018-08-31T01:25:51.787Z,21.77
2018-08-31T01:26:32.298Z,21.79
2018-08-31T01:27:12.732Z,21.59
2018-08-31T01:27:53.299Z,21.67
2018-08-31T01:28:33.761Z,21.61
2018-08-31T01:29:14.209Z,21.71
2018-08-31T01:29:54.671Z,21.72
2018-08-31T01:30:35.134Z,21.77
2018-08-31T01:31:15.654Z,21.84
2018-08-31T01:31:56.112Z,21.74
2018-08-31T01:32:36.594Z,21.79
2018-08-31T01:33:17.160Z,21.79
2018-08-31T01:33:57.641Z,21.67
2018-08-31T01:34:38.127Z,21.72
2018-08-31T01:35:18.608Z,21.79
2018-08-31T01:35:59.097Z,21.75
2018-08-31T01:36:39.607Z,21.75
2018-08-31T01:37:20.066Z,21.8
2018-08-31T01:38:00.561Z,21.75
2018-08-31T01:38:41.079Z,21.74
2018-08-31T01:39:21.554Z,21.65
2018-08-31T01:40:02.042Z,21.68
2018-08-31T01:40:42.560Z,21.77
2018-08-31T01:41:23.061Z,21.74
2018-08-31T01:42:03.530Z,21.65
2018-08-31T01:42:44.027Z,21.61
2018-08-31T01:43:24.518Z,21.62
2018-08-31T01:44:05.047Z,21.67
2018-08-31T01:44:45.452Z,21.65
2018-08-31T01:45:26.156Z,21.61
2018-08-31T01:46:06.642Z,21.68
2018-08-31T01:46:47.090Z,21.69
2018-08-31T01:47:27.602Z,21.67
2018-08-31T01:48:08.061Z,21.68
2018-08-31T01:48:48.572Z,21.74
2018-08-31T01:49:29.071Z,21.69
2018-08-31T01:50:09.545Z,21.65
2018-08-31T01:50:50.021Z,21.65
2018-08-31T01:51:30.524Z,21.56
2018-08-31T01:52:11.576Z,21.61
2018-08-31T01:52:51.584Z,21.59
2018-08-31T01:53:31.998Z,21.67
2018-08-31T01:54:12.504Z,21.62
2018-08-31T01:54:53.024Z,21.64
2018-08-31T01:55:33.842Z,21.72
2018-08-31T01:56:14.341Z,21.74
2018-08-31T01:56:54.839Z,21.75
2018-08-31T01:57:35.298Z,21.71
2018-08-31T01:58:15.772Z,21.74
2018-08-31T01:58:56.285Z,21.71
2018-08-31T01:59:37.692Z,21.68
2018-08-31T02:00:18.160Z,21.71
2018-08-31T02:00:58.690Z,21.68
2018-08-31T02:01:39.142Z,21.64
2018-08-31T02:02:19.693Z,21.64
2018-08-31T02:03:00.136Z,21.69
2018-08-31T02:03:40.689Z,21.61
2018-08-31T02:04:21.159Z,21.58
2018-08-31T02:05:01.670Z,21.44
2018-08-31T02:05:42.748Z,21.46
2018-08-31T02:06:23.232Z,21.34
2018-08-31T02:07:03.781Z,21.43
2018-08-31T02:07:44.261Z,21.5
2018-08-31T02:08:24.734Z,21.5
2018-08-31T02:09:05.288Z,21.54
2018-08-31T02:09:45.839Z,21.54
2018-08-31T02:10:26.292Z,21.53
2018-08-31T02:11:06.761Z,21.28
2018-08-31T02:11:47.242Z,21.34
2018-08-31T02:12:27.971Z,21.43
2018-08-31T02:13:08.472Z,21.38
2018-08-31T02:13:48.915Z,21.29
2018-08-31T02:14:29.442Z,21.42
2018-08-31T02:15:09.913Z,21.47
2018-08-31T02:15:50.355Z,21.34
2018-08-31T02:16:30.875Z,21.42
2018-08-31T02:17:11.344Z,21.42
2018-08-31T02:17:51.824Z,21.46
2018-08-31T02:18:32.310Z,21.5
2018-08-31T02:19:12.742Z,21.4
2018-08-31T02:19:53.285Z,21.27
2018-08-31T02:20:33.778Z,21.29
2018-08-31T02:21:14.201Z,21.34
2018-08-31T02:21:54.679Z,21.34
2018-08-31T02:22:35.267Z,21.24
2018-08-31T02:23:15.784Z,21.32
2018-08-31T02:23:56.279Z,21.35
2018-08-31T02:24:36.749Z,21.38
2018-08-31T02:25:17.232Z,21.34
2018-08-31T02:25:57.753Z,21.28
2018-08-31T02:26:38.217Z,21.34
2018-08-31T02:27:18.683Z,21.38
2018-08-31T02:27:59.260Z,21.35
2018-08-31T02:28:39.862Z,21.28
2018-08-31T02:29:20.368Z,21.29
2018-08-31T02:30:00.822Z,21.32
2018-08-31T02:30:41.387Z,21.31
2018-08-31T02:31:21.844Z,21.29
2018-08-31T02:32:02.331Z,21.34
2018-08-31T02:32:42.824Z,21.31
2018-08-31T02:33:23.317Z,21.29
2018-08-31T02:34:03.788Z,21.28
2018-08-31T02:34:44.276Z,21.32
2018-08-31T02:35:24.779Z,21.29
2018-08-31T02:36:05.263Z,21.31
2018-08-31T02:36:45.770Z,21.29
2018-08-31T02:37:26.224Z,21.34
2018-08-31T02:38:06.767Z,21.25
2018-08-31T02:38:47.264Z,21.35
2018-08-31T02:39:27.770Z,21.28
2018-08-31T02:40:08.269Z,21.31
2018-08-31T02:40:48.807Z,21.27
2018-08-31T02:41:29.637Z,21.35
2018-08-31T02:42:10.578Z,21.37
2018-08-31T02:42:51.601Z,21.32
2018-08-31T02:43:32.350Z,21.13
2018-08-31T02:44:12.853Z,21.17
2018-08-31T02:44:53.337Z,21.09
2018-08-31T02:45:33.902Z,21.17
2018-08-31T02:46:14.344Z,21.13
2018-08-31T02:46:54.827Z,21.19
2018-08-31T02:47:35.271Z,21.25
2018-08-31T02:48:16.222Z,21.17
2018-08-31T02:48:56.361Z,21.21
2018-08-31T02:49:36.856Z,21.24
2018-08-31T02:50:17.362Z,21.31
2018-08-31T02:50:58.057Z,21.28
2018-08-31T02:51:38.611Z,21.34
2018-08-31T02:52:19.089Z,21.34
2018-08-31T02:52:59.641Z,21.24
2018-08-31T02:53:40.162Z,21.25
2018-08-31T02:54:20.647Z,21.31
2018-08-31T02:55:01.141Z,21.22
2018-08-31T02:55:42.301Z,21.16
2018-08-31T02:56:22.783Z,21.1
2018-08-31T02:57:03.271Z,21.22
2018-08-31T02:57:43.807Z,21.13
2018-08-31T02:58:24.290Z,21.19
2018-08-31T02:59:04.762Z,21.07
2018-08-31T02:59:45.255Z,21.16
2018-08-31T03:00:25.728Z,21.16
2018-08-31T03:01:06.241Z,21.16
2018-08-31T03:01:46.736Z,21.06
2018-08-31T03:02:27.173Z,21.03
2018-08-31T03:03:07.718Z,21.12
2018-08-31T03:03:48.237Z,21.1
2018-08-31T03:04:28.644Z,21.16
2018-08-31T03:05:09.170Z,21.12
2018-08-31T03:05:49.662Z,21.01
2018-08-31T03:06:30.149Z,21.04
2018-08-31T03:07:10.701Z,21.01
2018-08-31T03:07:51.140Z,20.98
2018-08-31T03:08:31.630Z,21.01
2018-08-31T03:09:12.111Z,21.04
2018-08-31T03:09:52.744Z,20.85
2018-08-31T03:10:33.246Z,20.88
2018-08-31T03:11:13.716Z,20.99
2018-08-31T03:11:54.257Z,20.97
2018-08-31T03:12:34.713Z,20.91
2018-08-31T03:13:15.271Z,20.89
2018-08-31T03:13:55.727Z,20.99
2018-08-31T03:14:36.191Z,20.94
2018-08-31T03:15:16.689Z,20.88
2018-08-31T03:15:57.149Z,20.87
2018-08-31T03:16:37.669Z,20.74
2018-08-31T03:17:18.079Z,20.82
2018-08-31T03:17:58.581Z,20.84
2018-08-31T03:18:39.069Z,20.85
2018-08-31T03:19:19.611Z,20.8
2018-08-31T03:20:00.072Z,20.72
2018-08-31T03:20:40.531Z,20.73
2018-08-31T03:21:21.212Z,20.72
2018-08-31T03:22:01.588Z,20.69
2018-08-31T03:22:42.120Z,20.8
2018-08-31T03:23:22.554Z,20.73
2018-08-31T03:24:03.050Z,20.58
2018-08-31T03:24:43.511Z,20.61
2018-08-31T03:25:24.101Z,20.67
2018-08-31T03:26:04.579Z,20.69
2018-08-31T03:26:45.081Z,20.61
2018-08-31T03:27:25.594Z,20.57
2018-08-31T03:28:06.011Z,20.61
2018-08-31T03:28:46.578Z,20.61
2018-08-31T03:29:27.144Z,20.57
2018-08-31T03:30:07.586Z,20.57
2018-08-31T03:30:48.096Z,20.69
2018-08-31T03:31:28.598Z,20.62
2018-08-31T03:32:09.116Z,20.7
2018-08-31T03:32:49.630Z,20.73
2018-08-31T03:33:30.077Z,20.62
2018-08-31T03:34:10.580Z,20.62
2018-08-31T03:34:51.098Z,20.67
2018-08-31T03:35:31.543Z,20.59
2018-08-31T03:36:12.024Z,20.59
2018-08-31T03:36:52.550Z,20.73
2018-08-31T03:37:33.055Z,20.66
2018-08-31T03:38:13.538Z,20.72
2018-08-31T03:38:54.041Z,20.77
2018-08-31T03:39:34.483Z,20.69
2018-08-31T03:40:14.993Z,20.62
2018-08-31T03:40:55.480Z,20.69
2018-08-31T03:41:35.970Z,20.61
2018-08-31T03:42:16.515Z,20.72
2018-08-31T03:42:57.061Z,20.77
2018-08-31T03:43:37.955Z,20.74
2018-08-31T03:44:18.493Z,20.58
2018-08-31T03:44:58.987Z,20.55
2018-08-31T03:45:39.496Z,20.61
2018-08-31T03:46:19.936Z,20.61
2018-08-31T03:47:00.470Z,20.61
2018-08-31T03:47:41.665Z,20.52
2018-08-31T03:48:22.154Z,20.42
2018-08-31T03:49:02.669Z,20.43
2018-08-31T03:49:43.180Z,20.41
2018-08-31T03:51:21.047Z,20.43
2018-08-31T03:52:01.582Z,20.42
2018-08-31T03:52:42.130Z,20.32
2018-08-31T03:53:22.655Z,20.24
2018-08-31T03:54:03.147Z,20.33
2018-08-31T03:54:43.658Z,20.16
2018-08-31T03:55:24.153Z,20.14
2018-08-31T03:56:04.687Z,20.16
2018-08-31T03:56:45.201Z,20.2
2018-08-31T03:57:25.701Z,20.21
2018-08-31T03:58:06.195Z,20.16
2018-08-31T03:58:46.686Z,20.18
2018-08-31T03:59:27.186Z,20.16
2018-08-31T04:00:07.680Z,20.18
2018-08-31T04:00:48.146Z,20.21
2018-08-31T04:01:28.670Z,20.28
2018-08-31T04:02:09.148Z,20.36
2018-08-31T04:02:49.682Z,20.41
2018-08-31T04:03:30.179Z,20.28
2018-08-31T04:04:10.721Z,20.41
2018-08-31T04:04:51.234Z,20.32
2018-08-31T04:05:31.709Z,20.2
2018-08-31T04:06:12.224Z,20.17
2018-08-31T04:06:52.781Z,20.2
2018-08-31T04:07:33.280Z,20.24
2018-08-31T04:08:13.790Z,20.36
2018-08-31T04:08:54.289Z,20.32
2018-08-31T04:09:34.794Z,20.36
2018-08-31T04:10:15.337Z,20.5
2018-08-31T04:10:55.842Z,20.32
2018-08-31T04:11:36.379Z,20.31
2018-08-31T04:12:16.889Z,20.28
2018-08-31T04:12:57.454Z,20.14
2018-08-31T04:13:37.988Z,20.26
2018-08-31T04:14:18.502Z,20.28
2018-08-31T04:14:59.093Z,20.17
2018-08-31T04:15:39.570Z,20.26
2018-08-31T04:16:20.076Z,20.23
2018-08-31T04:18:18.236Z,20.23
2018-08-31T04:18:58.741Z,20.13
2018-08-31T04:19:39.250Z,20.14
2018-08-31T04:20:19.769Z,20.08
2018-08-31T04:21:00.285Z,20.02
2018-08-31T04:21:40.810Z,20.03
2018-08-31T04:22:21.330Z,20.17
2018-08-31T04:23:01.908Z,20.14
2018-08-31T04:23:42.393Z,20.16
2018-08-31T04:24:22.897Z,20.16
2018-08-31T04:25:03.527Z,20.23
2018-08-31T04:25:44.045Z,20.1
2018-08-31T04:26:24.787Z,20.17
2018-08-31T04:27:05.079Z,20.01
2018-08-31T04:27:45.591Z,20.05
2018-08-31T04:28:26.120Z,20.14
2018-08-31T04:29:06.649Z,20.14
2018-08-31T04:29:47.175Z,20.11
2018-08-31T04:30:27.698Z,20.05
2018-08-31T04:31:08.217Z,20.05
2018-08-31T04:31:48.728Z,19.86
2018-08-31T04:32:29.220Z,19.92
2018-08-31T04:33:09.744Z,19.94
2018-08-31T04:33:50.489Z,19.99
2018-08-31T04:34:31.022Z,19.98
2018-08-31T04:35:11.506Z,20.06
2018-08-31T04:35:52.023Z,19.92
2018-08-31T04:36:32.519Z,19.94
2018-08-31T04:37:13.017Z,19.94
2018-08-31T04:37:53.520Z,20.08
2018-08-31T04:38:34.012Z,19.92
2018-08-31T04:40:47.276Z,20.03
2018-08-31T04:41:27.784Z,19.96
2018-08-31T04:42:08.291Z,19.95
2018-08-31T04:42:48.841Z,19.98
2018-08-31T04:43:29.295Z,19.84
2018-08-31T04:44:09.790Z,19.87
2018-08-31T04:44:50.361Z,19.88
2018-08-31T04:45:30.888Z,19.96
2018-08-31T04:46:11.382Z,19.96
2018-08-31T04:46:51.900Z,19.96
2018-08-31T04:47:33.149Z,19.95
2018-08-31T04:48:13.649Z,20.03
2018-08-31T04:48:54.217Z,20.06
2018-08-31T04:49:34.664Z,20.17
2018-08-31T04:50:15.202Z,20.23
2018-08-31T04:50:55.710Z,20.05
2018-08-31T04:51:36.173Z,20.03
2018-08-31T04:52:16.689Z,20.05
2018-08-31T04:52:57.323Z,20.11
2018-08-31T04:53:37.822Z,19.96
2018-08-31T04:54:18.380Z,19.95
2018-08-31T04:54:58.877Z,19.98
2018-08-31T04:55:39.357Z,19.92
2018-08-31T04:56:19.854Z,19.92
2018-08-31T04:57:00.319Z,20.1
2018-08-31T04:57:40.852Z,20.1
2018-08-31T04:58:21.835Z,20.08
2018-08-31T04:59:02.419Z,19.87
2018-08-31T04:59:42.931Z,19.92
2018-08-31T05:00:23.430Z,19.95
2018-08-31T05:01:03.882Z,20.01
2018-08-31T05:01:44.379Z,19.81
2018-08-31T05:02:24.965Z,19.95
2018-08-31T05:03:05.477Z,19.91
2018-08-31T05:03:46.020Z,19.91
2018-08-31T05:04:26.566Z,19.94
2018-08-31T05:05:07.432Z,19.87
2018-08-31T05:05:48.129Z,19.99
2018-08-31T05:06:28.624Z,19.98
2018-08-31T05:07:09.140Z,19.94
2018-08-31T05:07:49.668Z,19.92
2018-08-31T05:08:30.173Z,19.86
2018-08-31T05:09:10.719Z,19.94
2018-08-31T05:09:51.234Z,19.99
2018-08-31T05:10:31.702Z,19.92
2018-08-31T05:11:12.172Z,19.88
2018-08-31T05:11:52.669Z,19.91
2018-08-31T05:12:33.230Z,20.1
2018-08-31T05:13:13.759Z,20.11
2018-08-31T05:13:54.282Z,20.11
2018-08-31T05:14:34.803Z,20.14
2018-08-31T05:15:15.328Z,20.13
2018-08-31T05:15:55.896Z,19.84
2018-08-31T05:16:36.349Z,19.92
2018-08-31T05:17:16.885Z,20.06
2018-08-31T05:17:57.422Z,20.11
2018-08-31T05:18:37.924Z,19.84
2018-08-31T05:19:18.436Z,19.78
2018-08-31T05:19:58.940Z,19.77
2018-08-31T05:20:39.469Z,19.78
2018-08-31T05:21:19.976Z,19.8
2018-08-31T05:22:00.488Z,19.84
2018-08-31T05:22:41.171Z,19.86
2018-08-31T05:23:21.569Z,19.92
2018-08-31T05:24:02.079Z,19.76
2018-08-31T05:24:42.619Z,19.84
2018-08-31T05:25:23.149Z,19.91
2018-08-31T05:26:03.679Z,19.92
2018-08-31T05:28:17.166Z,19.95
2018-08-31T05:28:57.653Z,19.98
2018-08-31T05:29:38.526Z,19.95
2018-08-31T05:30:19.041Z,19.96
2018-08-31T05:30:59.566Z,20.06
2018-08-31T05:31:40.219Z,20.13
2018-08-31T05:32:20.729Z,20.18
2018-08-31T05:33:01.224Z,20.1
2018-08-31T05:33:41.731Z,20.28
2018-08-31T05:34:22.281Z,20.23
2018-08-31T05:35:02.760Z,20.26
2018-08-31T05:35:43.412Z,20.29
2018-08-31T05:36:23.921Z,20.32
2018-08-31T05:37:04.551Z,20.33
2018-08-31T05:37:45.207Z,20.36
2018-08-31T05:38:25.843Z,20.33
2018-08-31T05:39:06.327Z,20.32
2018-08-31T05:39:46.850Z,20.36
2018-08-31T05:40:27.386Z,20.35
2018-08-31T05:41:07.995Z,20.33
2018-08-31T05:41:48.540Z,20.28
2018-08-31T05:42:29.107Z,20.28
2018-08-31T05:43:09.725Z,20.18
2018-08-31T05:43:50.139Z,20.08
2018-08-31T05:44:30.846Z,20.11
2018-08-31T05:45:11.552Z,20.14
2018-08-31T05:45:51.997Z,19.98
2018-08-31T05:46:32.498Z,20.06
2018-08-31T05:47:13.058Z,20.24
2018-08-31T05:47:54.415Z,20.28
2018-08-31T05:48:34.927Z,20.23
2018-08-31T05:49:15.413Z,20.31
2018-08-31T05:49:55.890Z,20.18
2018-08-31T05:50:36.415Z,20.16
2018-08-31T05:51:16.918Z,20.26
2018-08-31T05:51:57.410Z,20.29
2018-08-31T05:52:37.858Z,20.18
2018-08-31T05:53:18.939Z,20.17
2018-08-31T05:53:59.588Z,20.21
2018-08-31T05:54:40.094Z,20.31
2018-08-31T05:55:20.596Z,20.35
2018-08-31T05:56:01.055Z,20.41
2018-08-31T05:56:41.590Z,20.24
2018-08-31T05:57:22.237Z,20.36
2018-08-31T05:58:02.780Z,20.31
2018-08-31T05:58:43.359Z,20.13
2018-08-31T05:59:23.878Z,20.2
2018-08-31T06:00:05.370Z,20.24
2018-08-31T06:00:45.099Z,20.16
2018-08-31T06:01:25.584Z,20.21
2018-08-31T06:02:06.090Z,20.26
2018-08-31T06:02:46.538Z,20.33
2018-08-31T06:03:27.036Z,20.48
2018-08-31T06:04:07.938Z,20.48
2018-08-31T06:04:48.383Z,20.51
2018-08-31T06:05:28.835Z,20.54
2018-08-31T06:06:09.289Z,20.58
2018-08-31T06:06:49.797Z,20.59
2018-08-31T06:07:30.323Z,20.55
2018-08-31T06:08:10.787Z,20.51
2018-08-31T06:08:51.304Z,20.52
2018-08-31T06:09:31.793Z,20.43
2018-08-31T06:10:12.419Z,20.67
2018-08-31T06:10:53.703Z,20.62
2018-08-31T06:11:34.708Z,20.59
2018-08-31T06:12:15.191Z,20.61
2018-08-31T06:12:55.680Z,20.61
2018-08-31T06:13:36.184Z,20.57
2018-08-31T06:14:16.704Z,20.55
2018-08-31T06:14:57.196Z,20.72
2018-08-31T06:15:37.694Z,20.74
2018-08-31T06:16:18.203Z,20.8
2018-08-31T06:16:59.229Z,20.8
2018-08-31T06:17:39.786Z,20.55
2018-08-31T06:18:20.290Z,20.58
2018-08-31T06:19:00.753Z,20.79
2018-08-31T06:19:41.256Z,20.84
2018-08-31T06:20:21.814Z,20.95
2018-08-31T06:21:02.307Z,20.89
2018-08-31T06:23:16.622Z,20.97
2018-08-31T06:23:57.139Z,20.8
2018-08-31T06:24:37.664Z,20.85
2018-08-31T06:25:18.161Z,20.98
2018-08-31T06:25:58.668Z,20.89
2018-08-31T06:26:39.166Z,20.82
2018-08-31T06:27:19.674Z,20.85
2018-08-31T06:28:00.163Z,20.69
2018-08-31T06:28:40.670Z,20.74
2018-08-31T06:29:21.128Z,20.73
2018-08-31T06:30:01.839Z,20.72
2018-08-31T06:30:42.196Z,20.61
2018-08-31T06:31:22.711Z,20.72
2018-08-31T06:32:03.164Z,20.82
2018-08-31T06:32:43.745Z,20.8
2018-08-31T06:33:24.166Z,20.85
2018-08-31T06:34:04.673Z,20.82
2018-08-31T06:34:45.173Z,20.88
2018-08-31T06:35:25.713Z,20.87
2018-08-31T06:36:06.214Z,20.89
2018-08-31T06:36:46.768Z,20.88
2018-08-31T06:37:27.257Z,20.79
2018-08-31T06:38:07.766Z,20.79
2018-08-31T06:38:48.301Z,20.72
2018-08-31T06:39:28.817Z,20.73
2018-08-31T06:40:09.335Z,20.76
2018-08-31T06:40:49.856Z,20.69
2018-08-31T06:41:30.399Z,20.76
2018-08-31T06:42:11.792Z,20.74
2018-08-31T06:42:52.319Z,20.74
2018-08-31T06:43:32.826Z,20.57
2018-08-31T06:44:13.353Z,20.7
2018-08-31T06:44:53.874Z,20.7
2018-08-31T06:45:34.400Z,20.74
2018-08-31T06:46:14.926Z,20.69
2018-08-31T06:46:55.444Z,20.87
2018-08-31T06:47:36.094Z,20.89
2018-08-31T06:48:16.664Z,21.01
2018-08-31T06:49:54.530Z,20.88
2018-08-31T06:50:35.057Z,20.69
2018-08-31T06:51:15.589Z,20.69
2018-08-31T06:51:56.105Z,20.72
2018-08-31T06:52:36.949Z,20.62
2018-08-31T06:53:17.490Z,20.87
2018-08-31T06:53:57.985Z,20.87
2018-08-31T06:54:38.509Z,20.88
2018-08-31T06:55:19.082Z,20.98
2018-08-31T06:55:59.591Z,21.03
2018-08-31T06:56:40.117Z,20.97
2018-08-31T06:57:22.272Z,20.85
2018-08-31T06:58:02.788Z,20.76
2018-08-31T06:58:43.300Z,20.69
2018-08-31T06:59:23.816Z,20.72
2018-08-31T07:00:04.545Z,20.89
2018-08-31T07:00:45.242Z,20.98
2018-08-31T07:01:25.719Z,20.99
2018-08-31T07:02:06.225Z,21.09
2018-08-31T07:02:46.722Z,21.16
2018-08-31T07:03:27.234Z,21.17
2018-08-31T07:04:07.723Z,21.14
2018-08-31T07:04:48.253Z,21.12
2018-08-31T07:05:28.753Z,21.13
2018-08-31T07:06:09.266Z,21.29
2018-08-31T07:06:49.833Z,21.19
2018-08-31T07:07:30.301Z,21.27
2018-08-31T07:08:10.834Z,21.37
2018-08-31T07:08:51.303Z,21.37
2018-08-31T07:09:31.864Z,21.47
2018-08-31T07:10:12.358Z,21.42
2018-08-31T07:10:53.074Z,21.34
2018-08-31T07:11:33.619Z,21.24
2018-08-31T07:12:14.237Z,21.22
2018-08-31T07:12:54.715Z,21.31
2018-08-31T07:13:35.176Z,21.42
2018-08-31T07:14:15.701Z,21.42
2018-08-31T07:14:56.120Z,21.5
2018-08-31T07:15:36.613Z,21.5
2018-08-31T07:16:17.132Z,21.47
2018-08-31T07:16:57.615Z,21.27
2018-08-31T07:17:38.145Z,21.35
2018-08-31T07:18:18.629Z,21.46
2018-08-31T07:18:59.126Z,21.65
2018-08-31T07:19:39.611Z,21.74
2018-08-31T07:20:20.092Z,21.64
2018-08-31T07:21:00.576Z,21.64
2018-08-31T07:21:41.098Z,21.53
2018-08-31T07:22:21.601Z,21.47
2018-08-31T07:23:02.115Z,21.59
2018-08-31T07:23:42.603Z,21.49
2018-08-31T07:24:23.125Z,21.43
2018-08-31T07:25:03.621Z,21.47
2018-08-31T07:25:44.223Z,21.49
2018-08-31T07:26:24.782Z,21.43
2018-08-31T07:27:05.163Z,21.44
2018-08-31T07:27:45.634Z,21.54
2018-08-31T07:28:26.121Z,21.56
2018-08-31T07:29:06.633Z,21.49
2018-08-31T07:29:47.080Z,21.46
2018-08-31T07:30:27.600Z,21.29
2018-08-31T07:31:08.083Z,21.42
2018-08-31T07:31:48.600Z,21.28
2018-08-31T07:32:29.886Z,21.12
2018-08-31T07:33:09.650Z,21.04
2018-08-31T07:33:50.217Z,21.22
2018-08-31T07:34:30.808Z,21.25
2018-08-31T07:35:11.298Z,21.25
2018-08-31T07:35:51.780Z,21.24
2018-08-31T07:36:32.276Z,21.17
2018-08-31T07:37:12.795Z,21.13
2018-08-31T07:37:53.250Z,21.1
2018-08-31T07:38:33.744Z,20.98
2018-08-31T07:39:14.203Z,20.97
2018-08-31T07:39:55.061Z,21.07
2018-08-31T07:40:35.565Z,21.1
2018-08-31T07:41:16.105Z,21.01
2018-08-31T07:41:56.598Z,20.99
2018-08-31T07:42:37.130Z,20.95
2018-08-31T07:43:17.628Z,20.84
2018-08-31T07:43:58.152Z,20.8
2018-08-31T07:44:38.725Z,20.74
2018-08-31T07:45:19.247Z,20.84
2018-08-31T07:45:59.778Z,20.87
2018-08-31T07:46:40.305Z,20.74
2018-08-31T07:47:20.828Z,20.88
2018-08-31T07:48:01.399Z,20.99
2018-08-31T07:48:41.927Z,21.06
2018-08-31T07:49:22.462Z,20.98
2018-08-31T07:50:02.975Z,20.91
2018-08-31T07:50:43.493Z,20.82
2018-08-31T07:51:24.016Z,21.01
2018-08-31T07:52:04.530Z,21.04
2018-08-31T07:52:45.057Z,21.04
2018-08-31T07:53:25.590Z,21.09
2018-08-31T07:54:06.121Z,21.16
2018-08-31T07:54:46.635Z,21.14
2018-08-31T07:55:27.176Z,21.1
2018-08-31T07:56:07.674Z,21.17
2018-08-31T07:56:48.183Z,21.35
2018-08-31T07:57:28.723Z,21.28
2018-08-31T07:58:09.247Z,21.37
2018-08-31T07:58:49.773Z,21.46
2018-08-31T07:59:30.312Z,21.38
2018-08-31T08:00:10.839Z,21.42
2018-08-31T08:00:51.376Z,21.47
2018-08-31T08:01:31.884Z,21.49
2018-08-31T08:02:12.421Z,21.46
2018-08-31T08:02:52.978Z,21.64
2018-08-31T08:03:33.484Z,21.49
2018-08-31T08:04:14.079Z,21.47
2018-08-31T08:04:54.593Z,21.64
2018-08-31T08:05:35.121Z,21.84
2018-08-31T08:06:15.581Z,21.86
2018-08-31T08:06:56.124Z,21.74
2018-08-31T08:07:36.716Z,21.88
2018-08-31T08:08:17.182Z,21.75
2018-08-31T08:08:57.698Z,21.69
2018-08-31T08:09:38.217Z,21.8
2018-08-31T08:10:18.732Z,21.75
2018-08-31T08:10:59.253Z,21.65
2018-08-31T08:11:40.116Z,21.74
2018-08-31T08:12:20.631Z,21.9
2018-08-31T08:13:01.175Z,22.02
2018-08-31T08:13:41.671Z,22.03
2018-08-31T08:14:22.203Z,22.06
2018-08-31T08:15:02.760Z,22.17
2018-08-31T08:15:43.494Z,22.22
2018-08-31T08:16:23.833Z,22.17
2018-08-31T08:17:04.342Z,22.1
2018-08-31T08:17:44.916Z,21.99
2018-08-31T08:18:25.440Z,21.91
2018-08-31T08:19:05.988Z,22.03
2018-08-31T08:19:46.510Z,21.98
2018-08-31T08:20:27.022Z,22.05
2018-08-31T08:21:07.543Z,22.14
2018-08-31T08:21:48.030Z,22.17
2018-08-31T08:22:28.556Z,22.27
2018-08-31T08:23:09.077Z,22.31
2018-08-31T08:23:49.629Z,22.07
2018-08-31T08:24:30.150Z,21.99
2018-08-31T08:25:10.709Z,22.03
2018-08-31T08:25:51.198Z,22.2
2018-08-31T08:26:31.701Z,22.2
2018-08-31T08:27:12.219Z,22.14
2018-08-31T08:27:52.724Z,22.06
2018-08-31T08:28:33.275Z,22.02
2018-08-31T08:29:13.808Z,22.14
2018-08-31T08:29:54.313Z,22.12
2018-08-31T08:30:34.835Z,22.09
2018-08-31T08:31:15.367Z,22.05
2018-08-31T08:31:55.873Z,22.18
2018-08-31T08:32:36.399Z,22.17
2018-08-31T08:33:16.914Z,22.2
2018-08-31T08:33:57.490Z,22.28
2018-08-31T08:34:38.002Z,22.21
2018-08-31T08:35:18.517Z,22.17
2018-08-31T08:35:59.079Z,22.17
2018-08-31T08:36:39.566Z,22.2
2018-08-31T08:37:20.284Z,22.27
2018-08-31T08:38:00.780Z,22.31
2018-08-31T08:38:41.393Z,22.35
2018-08-31T08:39:21.930Z,22.43
2018-08-31T08:40:02.464Z,22.42
2018-08-31T08:40:43.046Z,22.4
2018-08-31T08:41:23.560Z,22.3
2018-08-31T08:42:04.128Z,22.42
2018-08-31T08:42:44.601Z,22.54
2018-08-31T08:43:25.120Z,22.57
2018-08-31T08:44:05.639Z,22.49
2018-08-31T08:44:46.381Z,22.52
2018-08-31T08:45:27.022Z,22.55
2018-08-31T08:46:07.511Z,22.49
2018-08-31T08:46:48.043Z,22.58
2018-08-31T08:47:28.598Z,22.52
2018-08-31T08:48:09.173Z,22.64
2018-08-31T08:48:49.740Z,22.6
2018-08-31T08:49:30.164Z,22.65
2018-08-31T08:50:10.712Z,22.77
2018-08-31T08:50:51.229Z,22.68